sensor_id;sensor_type;location;lat;lon;timestamp;pressure;altitude;pressure_sealevel;temperature;humidity
34586;BME280;20816;50.950;11.108;2024-03-02T00:01:06;97324.47;;;5.55;100.00
34586;BME280;20816;50.950;11.108;2024-03-02T00:03:34;97314.81;;;5.58;100.00
34586;BME280;20816;50.950;11.108;2024-03-02T00:06:00;97304.97;;;5.71;100.00
34586;BME280;20816;50.950;11.108;2024-03-02T00:08:28;97313.53;;;5.76;100.00
34586;BME280;20816;50.950;11.108;2024-03-02T00:11:00;97311.69;;;5.81;100.00
34586;BME280;20816;50.950;11.108;2024-03-02T00:13:27;97304.63;;;5.85;100.00
34586;BME280;20816;50.950;11.108;2024-03-02T00:15:56;97306.38;;;5.84;100.00
34586;BME280;20816;50.950;11.108;2024-03-02T00:18:32;97306.38;;;5.84;100.00
34586;BME280;20816;50.950;11.108;2024-03-02T00:21:00;97296.94;;;5.80;100.00
34586;BME280;20816;50.950;11.108;2024-03-02T00:23:29;97307.31;;;5.82;100.00
34586;BME280;20816;50.950;11.108;2024-03-02T00:25:58;97298.56;;;5.84;100.00
34586;BME280;20816;50.950;11.108;2024-03-02T00:28:36;97312.97;;;6.01;100.00
34586;BME280;20816;50.950;11.108;2024-03-02T00:33:45;97310.81;;;6.18;100.00
34586;BME280;20816;50.950;11.108;2024-03-02T00:36:14;97309.22;;;6.12;100.00
34586;BME280;20816;50.950;11.108;2024-03-02T00:38:49;97304.09;;;6.08;100.00
34586;BME280;20816;50.950;11.108;2024-03-02T00:41:27;97307.47;;;6.13;100.00
34586;BME280;20816;50.950;11.108;2024-03-02T00:44:02;97301.31;;;6.15;100.00
34586;BME280;20816;50.950;11.108;2024-03-02T00:46:37;97293.53;;;6.14;100.00
34586;BME280;20816;50.950;11.108;2024-03-02T00:51:41;97298.84;;;6.11;100.00
34586;BME280;20816;50.950;11.108;2024-03-02T00:54:09;97297.94;;;6.10;100.00
34586;BME280;20816;50.950;11.108;2024-03-02T00:56:36;97299.66;;;6.13;100.00
34586;BME280;20816;50.950;11.108;2024-03-02T00:59:03;97292.47;;;6.21;100.00
34586;BME280;20816;50.950;11.108;2024-03-02T01:01:30;97290.78;;;6.18;100.00
34586;BME280;20816;50.950;11.108;2024-03-02T01:03:56;97291.59;;;6.22;100.00
34586;BME280;20816;50.950;11.108;2024-03-02T01:06:23;97298.59;;;6.20;100.00
34586;BME280;20816;50.950;11.108;2024-03-02T01:08:50;97298.59;;;6.20;100.00
34586;BME280;20816;50.950;11.108;2024-03-02T01:11:19;97300.34;;;6.20;100.00
34586;BME280;20816;50.950;11.108;2024-03-02T01:13:49;97302.03;;;6.22;100.00
34586;BME280;20816;50.950;11.108;2024-03-02T01:16:16;97300.31;;;6.21;100.00
34586;BME280;20816;50.950;11.108;2024-03-02T01:18:43;97307.16;;;6.25;100.00
34586;BME280;20816;50.950;11.108;2024-03-02T01:21:10;97306.75;;;6.40;100.00
34586;BME280;20816;50.950;11.108;2024-03-02T01:23:37;97300.81;;;6.68;100.00
34586;BME280;20816;50.950;11.108;2024-03-02T01:26:04;97296.25;;;6.76;100.00
34586;BME280;20816;50.950;11.108;2024-03-02T01:28:31;97303.63;;;6.91;100.00
34586;BME280;20816;50.950;11.108;2024-03-02T01:30:57;97296.63;;;6.93;100.00
34586;BME280;20816;50.950;11.108;2024-03-02T01:33:24;97304.16;;;7.04;100.00
34586;BME280;20816;50.950;11.108;2024-03-02T01:35:51;97306.38;;;7.18;100.00
34586;BME280;20816;50.950;11.108;2024-03-02T01:38:18;97302.91;;;7.16;100.00
34586;BME280;20816;50.950;11.108;2024-03-02T01:40:45;97307.13;;;7.21;100.00
34586;BME280;20816;50.950;11.108;2024-03-02T01:43:11;97301.16;;;7.18;100.00
34586;BME280;20816;50.950;11.108;2024-03-02T01:45:38;97308.06;;;7.19;100.00
34586;BME280;20816;50.950;11.108;2024-03-02T01:48:06;97310.75;;;7.16;100.00
34586;BME280;20816;50.950;11.108;2024-03-02T01:50:34;97296.19;;;7.09;100.00
34586;BME280;20816;50.950;11.108;2024-03-02T01:53:01;97309.94;;;7.14;100.00
34586;BME280;20816;50.950;11.108;2024-03-02T01:55:31;97306.53;;;7.12;100.00
34586;BME280;20816;50.950;11.108;2024-03-02T01:57:59;97308.25;;;7.13;100.00
34586;BME280;20816;50.950;11.108;2024-03-02T02:00:26;97303.13;;;7.10;100.00
34586;BME280;20816;50.950;11.108;2024-03-02T02:02:54;97311.88;;;7.09;100.00
34586;BME280;20816;50.950;11.108;2024-03-02T02:05:21;97312.72;;;7.08;100.00
34586;BME280;20816;50.950;11.108;2024-03-02T02:07:48;97310.06;;;7.11;100.00
34586;BME280;20816;50.950;11.108;2024-03-02T02:10:15;97312.78;;;7.06;100.00
34586;BME280;20816;50.950;11.108;2024-03-02T02:12:42;97310.22;;;7.05;100.00
34586;BME280;20816;50.950;11.108;2024-03-02T02:15:30;97317.25;;;7.02;100.00
34586;BME280;20816;50.950;11.108;2024-03-02T02:17:58;97313.00;;;6.98;100.00
34586;BME280;20816;50.950;11.108;2024-03-02T02:20:26;97310.22;;;7.05;100.00
34586;BME280;20816;50.950;11.108;2024-03-02T02:23:03;97315.53;;;7.01;100.00
34586;BME280;20816;50.950;11.108;2024-03-02T02:25:32;97315.53;;;7.01;100.00
34586;BME280;20816;50.950;11.108;2024-03-02T02:27:59;97314.63;;;7.02;100.00
34586;BME280;20816;50.950;11.108;2024-03-02T02:30:28;97317.16;;;7.06;100.00
34586;BME280;20816;50.950;11.108;2024-03-02T02:32:56;97318.97;;;7.03;100.00
34586;BME280;20816;50.950;11.108;2024-03-02T02:35:23;97313.75;;;7.03;100.00
34586;BME280;20816;50.950;11.108;2024-03-02T02:37:54;97317.25;;;7.02;100.00
34586;BME280;20816;50.950;11.108;2024-03-02T02:40:22;97319.91;;;7.01;100.00
34586;BME280;20816;50.950;11.108;2024-03-02T02:42:49;97314.69;;;7.01;100.00
34586;BME280;20816;50.950;11.108;2024-03-02T02:45:16;97319.06;;;7.00;100.00
34586;BME280;20816;50.950;11.108;2024-03-02T02:47:44;97317.31;;;6.99;100.00
34586;BME280;20816;50.950;11.108;2024-03-02T02:50:12;97317.09;;;7.09;100.00
34586;BME280;20816;50.950;11.108;2024-03-02T02:52:40;97318.69;;;7.13;100.00
34586;BME280;20816;50.950;11.108;2024-03-02T02:55:09;97307.50;;;7.09;100.00
34586;BME280;20816;50.950;11.108;2024-03-02T02:57:38;97312.63;;;7.12;100.00
34586;BME280;20816;50.950;11.108;2024-03-02T03:00:10;97302.16;;;7.12;100.00
34586;BME280;20816;50.950;11.108;2024-03-02T03:02:44;97304.50;;;7.21;100.00
34586;BME280;20816;50.950;11.108;2024-03-02T03:05:12;97311.59;;;7.18;100.00
34586;BME280;20816;50.950;11.108;2024-03-02T03:07:41;97314.91;;;7.23;100.00
34586;BME280;20816;50.950;11.108;2024-03-02T03:10:08;97302.84;;;7.19;100.00
34586;BME280;20816;50.950;11.108;2024-03-02T03:12:35;97305.19;;;7.28;100.00
34586;BME280;20816;50.950;11.108;2024-03-02T03:15:03;97305.47;;;7.19;100.00
34586;BME280;20816;50.950;11.108;2024-03-02T03:17:31;97303.06;;;7.11;100.00
34586;BME280;20816;50.950;11.108;2024-03-02T03:19:58;97300.41;;;7.13;100.00
34586;BME280;20816;50.950;11.108;2024-03-02T03:22:25;97301.16;;;7.18;100.00
34586;BME280;20816;50.950;11.108;2024-03-02T03:24:51;97297.69;;;7.16;100.00
34586;BME280;20816;50.950;11.108;2024-03-02T03:27:18;97293.25;;;7.19;100.00
34586;BME280;20816;50.950;11.108;2024-03-02T03:29:46;97299.22;;;7.23;100.00
34586;BME280;20816;50.950;11.108;2024-03-02T03:32:13;97295.81;;;7.21;100.00
34586;BME280;20816;50.950;11.108;2024-03-02T03:34:40;97301.16;;;7.18;100.00
34586;BME280;20816;50.950;11.108;2024-03-02T03:37:07;97301.22;;;7.15;100.00
34586;BME280;20816;50.950;11.108;2024-03-02T03:39:34;97301.03;;;7.21;100.00
34586;BME280;20816;50.950;11.108;2024-03-02T03:42:03;97303.66;;;7.21;100.00
34586;BME280;20816;50.950;11.108;2024-03-02T03:44:29;97301.03;;;7.21;100.00
34586;BME280;20816;50.950;11.108;2024-03-02T03:46:56;97300.28;;;7.17;100.00
34586;BME280;20816;50.950;11.108;2024-03-02T03:49:23;97303.03;;;7.13;100.00
34586;BME280;20816;50.950;11.108;2024-03-02T03:51:50;97301.41;;;7.09;100.00
34586;BME280;20816;50.950;11.108;2024-03-02T03:54:17;97298.97;;;7.02;100.00
34586;BME280;20816;50.950;11.108;2024-03-02T03:56:44;97290.34;;;7.00;100.00
34586;BME280;20816;50.950;11.108;2024-03-02T03:59:10;97293.66;;;7.06;100.00
34586;BME280;20816;50.950;11.108;2024-03-02T04:01:37;97297.44;;;6.95;100.00
34586;BME280;20816;50.950;11.108;2024-03-02T04:04:04;97290.63;;;6.90;100.00
34586;BME280;20816;50.950;11.108;2024-03-02T04:06:31;97293.28;;;6.88;100.00
34586;BME280;20816;50.950;11.108;2024-03-02T04:08:57;97292.41;;;6.88;100.00
34586;BME280;20816;50.950;11.108;2024-03-02T04:11:24;97297.25;;;7.01;100.00
34586;BME280;20816;50.950;11.108;2024-03-02T04:13:51;97290.53;;;6.93;100.00
34586;BME280;20816;50.950;11.108;2024-03-02T04:16:19;97283.50;;;6.95;100.00
34586;BME280;20816;50.950;11.108;2024-03-02T04:18:46;97288.78;;;6.93;100.00
34586;BME280;20816;50.950;11.108;2024-03-02T04:21:12;97283.69;;;6.89;100.00
34586;BME280;20816;50.950;11.108;2024-03-02T04:23:39;97286.59;;;6.78;100.00
34586;BME280;20816;50.950;11.108;2024-03-02T04:26:06;97287.50;;;6.77;100.00
34586;BME280;20816;50.950;11.108;2024-03-02T04:28:32;97284.16;;;6.72;100.00
34586;BME280;20816;50.950;11.108;2024-03-02T04:30:59;97289.28;;;6.75;100.00
34586;BME280;20816;50.950;11.108;2024-03-02T04:33:26;97284.00;;;6.78;100.00
34586;BME280;20816;50.950;11.108;2024-03-02T04:35:52;97277.97;;;6.76;100.00
34586;BME280;20816;50.950;11.108;2024-03-02T04:38:19;97281.53;;;6.72;100.00
34586;BME280;20816;50.950;11.108;2024-03-02T04:40:46;97279.84;;;6.71;100.00
34586;BME280;20816;50.950;11.108;2024-03-02T04:43:12;97289.44;;;6.70;100.00
34586;BME280;20816;50.950;11.108;2024-03-02T04:45:42;97287.78;;;6.66;100.00
34586;BME280;20816;50.950;11.108;2024-03-02T04:48:09;97296.72;;;6.58;100.00
34586;BME280;20816;50.950;11.108;2024-03-02T04:50:36;97288.28;;;6.48;100.00
34586;BME280;20816;50.950;11.108;2024-03-02T04:53:03;97290.94;;;6.46;100.00
34586;BME280;20816;50.950;11.108;2024-03-02T04:55:30;97291.69;;;6.50;100.00
34586;BME280;20816;50.950;11.108;2024-03-02T04:58:05;97293.22;;;6.59;100.00
34586;BME280;20816;50.950;11.108;2024-03-02T05:00:34;97291.25;;;6.67;100.00
34586;BME280;20816;50.950;11.108;2024-03-02T05:03:02;97294.81;;;6.64;100.00
34586;BME280;20816;50.950;11.108;2024-03-02T05:05:29;97302.44;;;6.72;100.00
34586;BME280;20816;50.950;11.108;2024-03-02T05:07:55;97296.56;;;6.64;100.00
34586;BME280;20816;50.950;11.108;2024-03-02T05:10:22;97308.06;;;6.57;100.00
34586;BME280;20816;50.950;11.108;2024-03-02T05:12:49;97301.03;;;6.59;100.00
34586;BME280;20816;50.950;11.108;2024-03-02T05:15:27;97310.56;;;6.61;100.00
34586;BME280;20816;50.950;11.108;2024-03-02T05:17:54;97303.63;;;6.60;100.00
34586;BME280;20816;50.950;11.108;2024-03-02T05:20:20;97308.16;;;6.54;100.00
34586;BME280;20816;50.950;11.108;2024-03-02T05:22:47;97312.47;;;6.55;100.00
34586;BME280;20816;50.950;11.108;2024-03-02T05:25:15;97314.09;;;6.59;100.00
34586;BME280;20816;50.950;11.108;2024-03-02T05:27:41;97319.28;;;6.60;100.00
34586;BME280;20816;50.950;11.108;2024-03-02T05:30:09;97320.31;;;6.55;100.00
34586;BME280;20816;50.950;11.108;2024-03-02T05:32:35;97312.63;;;6.49;100.00
34586;BME280;20816;50.950;11.108;2024-03-02T05:35:02;97313.63;;;6.44;100.00
34586;BME280;20816;50.950;11.108;2024-03-02T05:37:29;97309.13;;;6.50;100.00
34586;BME280;20816;50.950;11.108;2024-03-02T05:39:56;97315.38;;;6.42;100.00
34586;BME280;20816;50.950;11.108;2024-03-02T05:42:23;97321.66;;;6.37;100.00
34586;BME280;20816;50.950;11.108;2024-03-02T05:44:50;97314.59;;;6.40;100.00
34586;BME280;20816;50.950;11.108;2024-03-02T05:47:17;97311.91;;;6.43;100.00
34586;BME280;20816;50.950;11.108;2024-03-02T05:49:43;97309.38;;;6.40;100.00
34586;BME280;20816;50.950;11.108;2024-03-02T05:52:10;97311.22;;;6.37;100.00
34586;BME280;20816;50.950;11.108;2024-03-02T05:54:38;97310.50;;;6.30;100.00
34586;BME280;20816;50.950;11.108;2024-03-02T05:57:05;97310.00;;;6.16;100.00
34586;BME280;20816;50.950;11.108;2024-03-02T06:00:00;97305.66;;;6.15;100.00
34586;BME280;20816;50.950;11.108;2024-03-02T06:02:27;97314.41;;;6.14;100.00
34586;BME280;20816;50.950;11.108;2024-03-02T06:04:55;97310.66;;;6.24;100.00
34586;BME280;20816;50.950;11.108;2024-03-02T06:07:22;97309.81;;;6.24;100.00
34586;BME280;20816;50.950;11.108;2024-03-02T06:09:49;97311.75;;;6.15;100.00
34586;BME280;20816;50.950;11.108;2024-03-02T06:12:18;97300.34;;;6.20;100.00
34586;BME280;20816;50.950;11.108;2024-03-02T06:14:45;97308.91;;;6.25;100.00
34586;BME280;20816;50.950;11.108;2024-03-02T06:17:12;97312.53;;;6.19;100.00
34586;BME280;20816;50.950;11.108;2024-03-02T06:19:39;97302.09;;;6.19;100.00
34586;BME280;20816;50.950;11.108;2024-03-02T06:22:06;97307.22;;;6.22;100.00
34586;BME280;20816;50.950;11.108;2024-03-02T06:24:33;97309.72;;;6.27;100.00
34586;BME280;20816;50.950;11.108;2024-03-02T06:26:59;97312.13;;;6.34;100.00
34586;BME280;20816;50.950;11.108;2024-03-02T06:29:26;97315.56;;;6.36;100.00
34586;BME280;20816;50.950;11.108;2024-03-02T06:31:52;97316.84;;;6.54;100.00
34586;BME280;20816;50.950;11.108;2024-03-02T06:34:20;97319.31;;;6.59;100.00
34586;BME280;20816;50.950;11.108;2024-03-02T06:36:47;97323.22;;;6.75;100.00
34586;BME280;20816;50.950;11.108;2024-03-02T06:39:14;97322.75;;;6.93;100.00
34586;BME280;20816;50.950;11.108;2024-03-02T06:41:41;97325.94;;;7.03;100.00
34586;BME280;20816;50.950;11.108;2024-03-02T06:44:09;97324.94;;;7.09;100.00
34586;BME280;20816;50.950;11.108;2024-03-02T06:46:35;97327.28;;;7.18;100.00
34586;BME280;20816;50.950;11.108;2024-03-02T06:49:02;97329.47;;;7.31;100.00
34586;BME280;20816;50.950;11.108;2024-03-02T06:51:30;97330.66;;;7.51;100.00
34586;BME280;20816;50.950;11.108;2024-03-02T06:53:57;97325.13;;;7.60;100.00
34586;BME280;20816;50.950;11.108;2024-03-02T06:56:24;97329.34;;;7.66;100.00
34586;BME280;20816;50.950;11.108;2024-03-02T06:58:51;97330.47;;;7.85;100.00
34586;BME280;20816;50.950;11.108;2024-03-02T07:01:18;97338.44;;;7.80;100.00
34586;BME280;20816;50.950;11.108;2024-03-02T07:03:50;97338.06;;;7.93;100.00
34586;BME280;20816;50.950;11.108;2024-03-02T07:06:17;97343.19;;;7.96;100.00
34586;BME280;20816;50.950;11.108;2024-03-02T07:08:44;97338.69;;;8.01;100.00
34586;BME280;20816;50.950;11.108;2024-03-02T07:11:10;97342.16;;;8.01;100.00
34586;BME280;20816;50.950;11.108;2024-03-02T07:13:37;97347.28;;;8.04;100.00
34586;BME280;20816;50.950;11.108;2024-03-02T07:16:04;97342.09;;;8.03;100.00
34586;BME280;20816;50.950;11.108;2024-03-02T07:18:37;97345.38;;;8.09;100.00
34586;BME280;20816;50.950;11.108;2024-03-02T07:21:07;97348.13;;;8.06;100.00
34586;BME280;20816;50.950;11.108;2024-03-02T07:23:34;97347.84;;;8.14;100.00
34586;BME280;20816;50.950;11.108;2024-03-02T07:26:00;97350.44;;;8.15;100.00
34586;BME280;20816;50.950;11.108;2024-03-02T07:28:31;97352.03;;;8.20;100.00
34586;BME280;20816;50.950;11.108;2024-03-02T07:31:02;97361.53;;;8.22;100.00
34586;BME280;20816;50.950;11.108;2024-03-02T07:33:31;97359.63;;;8.27;100.00
34586;BME280;20816;50.950;11.108;2024-03-02T07:35:59;97357.81;;;8.29;100.00
34586;BME280;20816;50.950;11.108;2024-03-02T07:38:30;97362.03;;;8.35;100.00
34586;BME280;20816;50.950;11.108;2024-03-02T07:40:58;97363.75;;;8.36;100.00
34586;BME280;20816;50.950;11.108;2024-03-02T07:43:26;97358.41;;;8.39;100.00
34586;BME280;20816;50.950;11.108;2024-03-02T07:45:53;97366.03;;;8.45;100.00
34586;BME280;20816;50.950;11.108;2024-03-02T07:48:20;97368.28;;;8.57;100.00
34586;BME280;20816;50.950;11.108;2024-03-02T07:50:47;97363.47;;;8.70;100.00
34586;BME280;20816;50.950;11.108;2024-03-02T07:53:14;97376.28;;;8.78;100.00
34586;BME280;20816;50.950;11.108;2024-03-02T07:55:41;97367.63;;;8.76;100.00
34586;BME280;20816;50.950;11.108;2024-03-02T07:58:08;97374.59;;;8.77;100.00
34586;BME280;20816;50.950;11.108;2024-03-02T08:00:35;97381.66;;;8.75;100.00
34586;BME280;20816;50.950;11.108;2024-03-02T08:03:02;97389.44;;;8.76;100.00
34586;BME280;20816;50.950;11.108;2024-03-02T08:05:30;97389.97;;;8.86;100.00
34586;BME280;20816;50.950;11.108;2024-03-02T08:07:56;97387.63;;;9.03;100.00
34586;BME280;20816;50.950;11.108;2024-03-02T08:10:23;97391.56;;;9.40;100.00
34586;BME280;20816;50.950;11.108;2024-03-02T08:12:50;97385.63;;;9.81;100.00
34586;BME280;20816;50.950;11.108;2024-03-02T08:15:17;97389.41;;;9.74;99.90
34586;BME280;20816;50.950;11.108;2024-03-02T08:17:43;97390.66;;;9.64;100.00
34586;BME280;20816;50.950;11.108;2024-03-02T08:20:16;97394.28;;;9.60;100.00
34586;BME280;20816;50.950;11.108;2024-03-02T08:22:43;97396.47;;;9.49;100.00
34586;BME280;20816;50.950;11.108;2024-03-02T08:25:10;97401.59;;;9.52;100.00
34586;BME280;20816;50.950;11.108;2024-03-02T08:27:37;97397.44;;;9.46;100.00
34586;BME280;20816;50.950;11.108;2024-03-02T08:30:05;97399.88;;;9.51;100.00
34586;BME280;20816;50.950;11.108;2024-03-02T08:32:33;97399.03;;;9.74;100.00
34586;BME280;20816;50.950;11.108;2024-03-02T08:35:01;97401.34;;;10.05;99.31
34586;BME280;20816;50.950;11.108;2024-03-02T08:37:27;97399.09;;;9.96;97.20
34586;BME280;20816;50.950;11.108;2024-03-02T08:39:54;97402.28;;;9.80;98.14
34586;BME280;20816;50.950;11.108;2024-03-02T08:42:22;97411.44;;;9.70;98.22
34586;BME280;20816;50.950;11.108;2024-03-02T08:44:49;97406.16;;;9.94;97.34
34586;BME280;20816;50.950;11.108;2024-03-02T08:47:16;97402.69;;;10.15;97.04
34586;BME280;20816;50.950;11.108;2024-03-02T08:49:43;97402.25;;;10.27;95.02
34586;BME280;20816;50.950;11.108;2024-03-02T08:52:10;97392.81;;;10.22;94.12
34586;BME280;20816;50.950;11.108;2024-03-02T08:54:36;97401.13;;;10.11;94.66
34586;BME280;20816;50.950;11.108;2024-03-02T08:57:05;97408.63;;;10.20;94.08
34586;BME280;20816;50.950;11.108;2024-03-02T08:59:32;97398.88;;;10.00;93.72
34586;BME280;20816;50.950;11.108;2024-03-02T09:01:59;97404.19;;;10.44;93.74
34586;BME280;20816;50.950;11.108;2024-03-02T09:04:27;97395.13;;;11.34;90.51
34586;BME280;20816;50.950;11.108;2024-03-02T09:06:59;97401.66;;;12.02;85.83
34586;BME280;20816;50.950;11.108;2024-03-02T09:09:27;97399.28;;;12.34;82.91
34586;BME280;20816;50.950;11.108;2024-03-02T09:11:54;97401.41;;;12.62;81.99
34586;BME280;20816;50.950;11.108;2024-03-02T09:14:21;97406.16;;;12.55;81.23
34586;BME280;20816;50.950;11.108;2024-03-02T09:16:48;97398.53;;;12.13;82.01
34586;BME280;20816;50.950;11.108;2024-03-02T09:19:15;97398.41;;;11.97;82.24
34586;BME280;20816;50.950;11.108;2024-03-02T09:21:42;97393.34;;;11.54;84.18
34586;BME280;20816;50.950;11.108;2024-03-02T09:24:10;97393.63;;;11.47;84.04
34586;BME280;20816;50.950;11.108;2024-03-02T09:26:39;97400.31;;;11.94;84.16
34586;BME280;20816;50.950;11.108;2024-03-02T09:29:06;97390.94;;;12.43;82.21
34586;BME280;20816;50.950;11.108;2024-03-02T09:31:33;97398.56;;;12.67;79.74
34586;BME280;20816;50.950;11.108;2024-03-02T09:33:59;97398.44;;;12.87;78.67
34586;BME280;20816;50.950;11.108;2024-03-02T09:36:26;97399.22;;;12.89;78.58
34586;BME280;20816;50.950;11.108;2024-03-02T09:38:53;97398.28;;;12.73;78.60
34586;BME280;20816;50.950;11.108;2024-03-02T09:41:20;97395.63;;;12.55;79.56
34586;BME280;20816;50.950;11.108;2024-03-02T09:43:47;97401.72;;;12.20;79.73
34586;BME280;20816;50.950;11.108;2024-03-02T09:46:15;97401.81;;;11.99;81.34
34586;BME280;20816;50.950;11.108;2024-03-02T09:48:41;97393.03;;;12.18;81.72
34586;BME280;20816;50.950;11.108;2024-03-02T09:51:10;97407.19;;;12.34;81.93
34586;BME280;20816;50.950;11.108;2024-03-02T09:53:37;97406.88;;;12.76;81.03
34586;BME280;20816;50.950;11.108;2024-03-02T09:56:05;97399.34;;;12.86;78.90
34586;BME280;20816;50.950;11.108;2024-03-02T09:58:31;97413.00;;;12.94;80.46
34586;BME280;20816;50.950;11.108;2024-03-02T10:00:58;97404.97;;;12.80;78.42
34586;BME280;20816;50.950;11.108;2024-03-02T10:03:26;97406.25;;;12.71;79.37
34586;BME280;20816;50.950;11.108;2024-03-02T10:05:53;97404.47;;;12.54;78.39
34586;BME280;20816;50.950;11.108;2024-03-02T10:08:20;97407.22;;;12.51;78.54
34586;BME280;20816;50.950;11.108;2024-03-02T10:10:46;97404.75;;;12.48;78.98
34586;BME280;20816;50.950;11.108;2024-03-02T10:13:13;97403.44;;;12.57;78.92
34586;BME280;20816;50.950;11.108;2024-03-02T10:15:41;97410.03;;;12.48;78.74
34586;BME280;20816;50.950;11.108;2024-03-02T10:18:12;97404.47;;;12.54;78.37
34586;BME280;20816;50.950;11.108;2024-03-02T10:20:40;97400.19;;;12.69;78.68
34586;BME280;20816;50.950;11.108;2024-03-02T10:23:14;97399.03;;;12.57;78.78
34586;BME280;20816;50.950;11.108;2024-03-02T10:25:42;97412.69;;;12.66;79.27
34586;BME280;20816;50.950;11.108;2024-03-02T10:28:22;97397.44;;;12.72;79.80
34586;BME280;20816;50.950;11.108;2024-03-02T10:30:49;97407.25;;;12.86;79.12
34586;BME280;20816;50.950;11.108;2024-03-02T10:33:18;97408.44;;;12.98;79.43
34586;BME280;20816;50.950;11.108;2024-03-02T10:35:45;97404.25;;;12.94;78.60
34586;BME280;20816;50.950;11.108;2024-03-02T10:38:15;97403.25;;;13.13;77.80
34586;BME280;20816;50.950;11.108;2024-03-02T10:40:46;97390.97;;;13.47;77.01
34586;BME280;20816;50.950;11.108;2024-03-02T10:43:14;97399.59;;;13.66;76.01
34586;BME280;20816;50.950;11.108;2024-03-02T10:45:42;97399.22;;;13.90;74.23
34586;BME280;20816;50.950;11.108;2024-03-02T10:48:09;97388.84;;;13.87;74.83
34586;BME280;20816;50.950;11.108;2024-03-02T10:50:36;97388.34;;;14.12;73.50
34586;BME280;20816;50.950;11.108;2024-03-02T10:53:03;97392.91;;;14.24;67.26
34586;BME280;20816;50.950;11.108;2024-03-02T10:55:31;97388.16;;;14.62;65.21
34586;BME280;20816;50.950;11.108;2024-03-02T10:58:00;97389.22;;;15.04;62.93
34586;BME280;20816;50.950;11.108;2024-03-02T11:00:33;97386.13;;;15.70;63.76
34586;BME280;20816;50.950;11.108;2024-03-02T11:03:05;97382.28;;;16.17;61.87
34586;BME280;20816;50.950;11.108;2024-03-02T11:05:35;97377.63;;;16.62;58.95
34586;BME280;20816;50.950;11.108;2024-03-02T11:08:07;97371.75;;;16.71;57.72
34586;BME280;20816;50.950;11.108;2024-03-02T11:10:41;97367.44;;;16.68;56.79
34586;BME280;20816;50.950;11.108;2024-03-02T11:13:09;97374.84;;;16.36;58.03
34586;BME280;20816;50.950;11.108;2024-03-02T11:15:39;97371.31;;;16.23;57.79
34586;BME280;20816;50.950;11.108;2024-03-02T11:18:07;97376.47;;;15.97;58.10
34586;BME280;20816;50.950;11.108;2024-03-02T11:20:39;97380.06;;;15.68;56.24
34586;BME280;20816;50.950;11.108;2024-03-02T11:23:08;97366.25;;;15.63;58.44
34586;BME280;20816;50.950;11.108;2024-03-02T11:25:36;97365.09;;;15.53;60.95
34586;BME280;20816;50.950;11.108;2024-03-02T11:28:04;97370.53;;;15.21;59.76
34586;BME280;20816;50.950;11.108;2024-03-02T11:35:41;97371.00;;;14.69;61.55
34586;BME280;20816;50.950;11.108;2024-03-02T11:38:13;97365.09;;;14.64;61.37
34586;BME280;20816;50.950;11.108;2024-03-02T11:40:40;97365.72;;;14.38;61.09
34586;BME280;20816;50.950;11.108;2024-03-02T11:43:07;97366.16;;;14.30;60.05
34586;BME280;20816;50.950;11.108;2024-03-02T11:45:36;97360.63;;;14.35;60.50
34586;BME280;20816;50.950;11.108;2024-03-02T11:48:08;97366.78;;;14.51;61.94
34586;BME280;20816;50.950;11.108;2024-03-02T11:50:46;97359.50;;;14.23;63.07
34586;BME280;20816;50.950;11.108;2024-03-02T11:53:14;97362.53;;;14.01;60.21
34586;BME280;20816;50.950;11.108;2024-03-02T11:55:41;97360.34;;;13.92;60.62
34586;BME280;20816;50.950;11.108;2024-03-02T11:58:08;97364.28;;;14.00;59.78
34586;BME280;20816;50.950;11.108;2024-03-02T12:00:35;97359.19;;;14.13;59.71
34586;BME280;20816;50.950;11.108;2024-03-02T12:03:07;97358.84;;;14.51;59.33
34586;BME280;20816;50.950;11.108;2024-03-02T12:05:34;97352.97;;;14.76;59.69
34586;BME280;20816;50.950;11.108;2024-03-02T12:08:03;97353.38;;;14.84;59.85
34586;BME280;20816;50.950;11.108;2024-03-02T12:10:31;97352.88;;;15.07;60.78
34586;BME280;20816;50.950;11.108;2024-03-02T12:12:59;97349.66;;;15.45;60.16
34586;BME280;20816;50.950;11.108;2024-03-02T12:15:28;97343.63;;;15.72;59.46
34586;BME280;20816;50.950;11.108;2024-03-02T12:17:56;97337.22;;;16.44;58.05
34586;BME280;20816;50.950;11.108;2024-03-02T12:20:24;97344.38;;;16.70;57.67
34586;BME280;20816;50.950;11.108;2024-03-02T12:22:52;97329.19;;;16.45;56.40
34586;BME280;20816;50.950;11.108;2024-03-02T12:25:20;97337.56;;;16.25;55.71
34586;BME280;20816;50.950;11.108;2024-03-02T12:27:49;97340.47;;;16.08;57.59
34586;BME280;20816;50.950;11.108;2024-03-02T12:30:17;97333.50;;;15.92;57.26
34586;BME280;20816;50.950;11.108;2024-03-02T12:32:45;97349.22;;;15.81;57.69
34586;BME280;20816;50.950;11.108;2024-03-02T12:35:12;97341.66;;;15.75;57.72
34586;BME280;20816;50.950;11.108;2024-03-02T12:37:48;97330.66;;;15.53;59.04
34586;BME280;20816;50.950;11.108;2024-03-02T12:40:15;97334.34;;;15.22;61.15
34586;BME280;20816;50.950;11.108;2024-03-02T12:42:45;97335.75;;;14.99;63.11
34586;BME280;20816;50.950;11.108;2024-03-02T12:45:13;97336.25;;;14.75;64.23
34586;BME280;20816;50.950;11.108;2024-03-02T12:47:41;97337.72;;;14.65;64.01
34586;BME280;20816;50.950;11.108;2024-03-02T12:50:09;97326.16;;;14.52;64.65
34586;BME280;20816;50.950;11.108;2024-03-02T12:52:36;97337.16;;;14.60;64.99
34586;BME280;20816;50.950;11.108;2024-03-02T12:55:05;97328.47;;;14.58;64.86
34586;BME280;20816;50.950;11.108;2024-03-02T12:57:33;97333.91;;;14.55;64.24
34586;BME280;20816;50.950;11.108;2024-03-02T13:00:02;97335.44;;;14.59;65.13
34586;BME280;20816;50.950;11.108;2024-03-02T13:02:36;97332.66;;;14.46;65.01
34586;BME280;20816;50.950;11.108;2024-03-02T13:05:06;97325.81;;;14.58;65.44